createdAt,value
2024-03-10T00:00:16.137Z,7.16
2024-03-10T00:02:46.900Z,7.15
2024-03-10T00:05:14.975Z,7.13
2024-03-10T00:07:42.799Z,7.13
2024-03-10T00:10:11.413Z,7.14
2024-03-10T00:12:38.168Z,7.14
2024-03-10T00:15:05.397Z,7.15
2024-03-10T00:17:32.256Z,7.12
2024-03-10T00:19:59.136Z,7.12
2024-03-10T00:22:25.803Z,7.10
2024-03-10T00:24:52.490Z,7.08
2024-03-10T00:27:19.251Z,7.07
2024-03-10T00:29:45.954Z,7.07
2024-03-10T00:32:12.706Z,7.06
2024-03-10T00:34:39.412Z,7.07
2024-03-10T00:37:06.821Z,7.05
2024-03-10T00:39:33.952Z,7.04
2024-03-10T00:42:01.180Z,7.03
2024-03-10T00:44:28.007Z,7.01
2024-03-10T00:46:54.754Z,7.00
2024-03-10T00:49:21.717Z,7.01
2024-03-10T00:51:49.633Z,7.01
2024-03-10T00:54:16.377Z,7.01
2024-03-10T00:56:43.024Z,7.00
2024-03-10T00:59:09.825Z,7.00
2024-03-10T01:01:37.984Z,7.00
2024-03-10T01:04:05.106Z,6.98
2024-03-10T01:06:31.899Z,6.99
2024-03-10T01:08:59.601Z,6.99
2024-03-10T01:11:27.838Z,7.00
2024-03-10T01:13:54.589Z,6.98
2024-03-10T01:16:21.305Z,6.98
2024-03-10T01:18:48.551Z,7.00
2024-03-10T01:21:15.262Z,7.00
2024-03-10T01:23:41.963Z,7.01
2024-03-10T01:26:08.720Z,7.00
2024-03-10T01:28:35.716Z,7.00
2024-03-10T01:31:02.509Z,7.00
2024-03-10T01:33:29.338Z,6.98
2024-03-10T01:35:56.433Z,6.98
2024-03-10T01:38:23.166Z,6.98
2024-03-10T01:40:49.930Z,6.98
2024-03-10T01:43:16.712Z,6.97
2024-03-10T01:45:43.513Z,6.96
2024-03-10T01:48:10.953Z,6.95
2024-03-10T01:50:37.714Z,6.96
2024-03-10T01:53:04.766Z,7.00
2024-03-10T01:55:31.681Z,6.98
2024-03-10T01:57:59.043Z,7.00
2024-03-10T02:00:28.075Z,7.00
2024-03-10T02:02:55.110Z,7.01
2024-03-10T02:05:24.288Z,7.01
2024-03-10T02:07:51.216Z,7.04
2024-03-10T02:10:18.272Z,7.04
2024-03-10T02:12:45.019Z,7.05
2024-03-10T02:15:11.823Z,7.05
2024-03-10T02:17:38.928Z,7.06
2024-03-10T02:20:15.458Z,7.08
2024-03-10T02:22:44.031Z,7.08
2024-03-10T02:25:13.918Z,7.09
2024-03-10T02:27:46.207Z,7.10
2024-03-10T02:30:30.755Z,7.12
2024-03-10T02:33:15.768Z,7.12
2024-03-10T02:36:21.075Z,7.15
2024-03-10T02:39:06.122Z,7.15
2024-03-10T02:41:51.527Z,7.15
2024-03-10T02:44:37.027Z,7.16
2024-03-10T02:47:16.540Z,7.16
2024-03-10T02:49:44.003Z,7.17
2024-03-10T02:52:11.159Z,7.17
2024-03-10T02:54:40.200Z,7.19
2024-03-10T02:57:07.755Z,7.19
2024-03-10T02:59:34.492Z,7.20
2024-03-10T03:02:01.228Z,7.22
2024-03-10T03:04:27.872Z,7.21
2024-03-10T03:06:54.702Z,7.23
2024-03-10T03:09:21.689Z,7.25
2024-03-10T03:11:48.565Z,7.25
2024-03-10T03:14:15.662Z,7.27
2024-03-10T03:16:43.894Z,7.27
2024-03-10T03:19:14.248Z,7.28
2024-03-10T03:21:41.337Z,7.29
2024-03-10T03:24:14.540Z,7.30
2024-03-10T03:26:41.247Z,7.30
2024-03-10T03:29:08.324Z,7.31
2024-03-10T03:31:35.152Z,7.31
2024-03-10T03:34:02.171Z,7.33
2024-03-10T03:36:28.864Z,7.32
2024-03-10T03:38:56.813Z,7.33
2024-03-10T03:41:23.643Z,7.35
2024-03-10T03:43:51.301Z,7.35
2024-03-10T03:46:18.578Z,7.37
2024-03-10T03:48:45.402Z,7.38
2024-03-10T03:51:12.791Z,7.38
2024-03-10T03:53:39.509Z,7.40
2024-03-10T03:56:09.398Z,7.41
2024-03-10T03:58:36.171Z,7.41
2024-03-10T04:01:03.001Z,7.41
2024-03-10T04:03:30.363Z,7.42
2024-03-10T04:05:57.253Z,7.42
2024-03-10T04:08:24.030Z,7.42
2024-03-10T04:10:51.962Z,7.42
2024-03-10T04:13:18.848Z,7.43
2024-03-10T04:15:45.579Z,7.42
2024-03-10T04:18:12.260Z,7.44
2024-03-10T04:20:40.098Z,7.46
2024-03-10T04:23:07.069Z,7.47
2024-03-10T04:25:34.444Z,7.47
2024-03-10T04:28:02.722Z,7.48
2024-03-10T04:30:29.664Z,7.48
2024-03-10T04:32:56.441Z,7.49
2024-03-10T04:35:23.754Z,7.50
2024-03-10T04:37:50.492Z,7.51
2024-03-10T04:40:19.498Z,7.50
2024-03-10T04:42:46.171Z,7.50
2024-03-10T04:45:13.101Z,7.49
2024-03-10T04:47:39.994Z,7.51
2024-03-10T04:50:07.880Z,7.50
2024-03-10T04:52:34.766Z,7.50
2024-03-10T04:55:02.334Z,7.53
2024-03-10T04:57:29.069Z,7.53
2024-03-10T04:59:55.741Z,7.54
2024-03-10T05:02:22.446Z,7.52
2024-03-10T05:04:50.205Z,7.53
2024-03-10T05:07:17.150Z,7.55
2024-03-10T05:09:44.287Z,7.52
2024-03-10T05:12:13.957Z,7.53
2024-03-10T05:14:40.786Z,7.52
2024-03-10T05:17:07.702Z,7.53
2024-03-10T05:19:35.128Z,7.54
2024-03-10T05:22:01.928Z,7.55
2024-03-10T05:24:28.577Z,7.56
2024-03-10T05:26:55.233Z,7.57
2024-03-10T05:29:21.931Z,7.57
2024-03-10T05:31:48.659Z,7.58
2024-03-10T05:34:15.502Z,7.60
2024-03-10T05:36:42.210Z,7.64
2024-03-10T05:39:09.757Z,7.65
2024-03-10T05:41:36.676Z,7.66
2024-03-10T05:44:05.098Z,7.67
2024-03-10T05:46:31.878Z,7.67
2024-03-10T05:49:02.106Z,7.69
2024-03-10T05:51:28.803Z,7.71
2024-03-10T05:53:55.495Z,7.70
2024-03-10T05:56:22.201Z,7.71
2024-03-10T05:58:50.548Z,7.73
2024-03-10T06:01:24.663Z,7.72
2024-03-10T06:03:54.976Z,7.74
2024-03-10T06:06:24.931Z,7.73
2024-03-10T06:08:51.600Z,7.77
2024-03-10T06:11:20.054Z,7.76
2024-03-10T06:13:46.998Z,7.79
2024-03-10T06:16:14.253Z,7.79
2024-03-10T06:18:56.975Z,7.78
2024-03-10T06:21:46.568Z,7.79
2024-03-10T06:24:32.780Z,7.77
2024-03-10T06:26:59.514Z,7.80
2024-03-10T06:29:26.382Z,7.82
2024-03-10T06:31:53.287Z,7.82
2024-03-10T06:34:23.643Z,7.83
2024-03-10T06:36:51.053Z,7.83
2024-03-10T06:39:21.150Z,7.85
2024-03-10T06:41:48.310Z,7.86
2024-03-10T06:44:20.567Z,7.87
2024-03-10T06:46:47.562Z,7.85
2024-03-10T06:49:15.605Z,7.86
2024-03-10T06:51:42.514Z,7.87
2024-03-10T06:54:09.679Z,7.88
2024-03-10T06:56:38.140Z,7.89
2024-03-10T06:59:05.115Z,7.90
2024-03-10T07:01:33.366Z,7.89
2024-03-10T07:04:00.046Z,7.90
2024-03-10T07:06:30.075Z,7.90
2024-03-10T07:08:56.809Z,7.91
2024-03-10T07:11:24.013Z,7.90
2024-03-10T07:13:52.335Z,7.89
2024-03-10T07:16:19.663Z,7.88
2024-03-10T07:18:46.696Z,7.91
2024-03-10T07:21:18.261Z,7.91
2024-03-10T07:23:45.165Z,7.92
2024-03-10T07:26:12.522Z,7.94
2024-03-10T07:28:39.238Z,7.95
2024-03-10T07:31:09.023Z,7.94
2024-03-10T07:33:36.270Z,7.94
2024-03-10T07:36:03.010Z,7.93
2024-03-10T07:38:30.989Z,7.91
2024-03-10T07:41:00.037Z,7.90
2024-03-10T07:43:26.852Z,7.90
2024-03-10T07:45:53.634Z,7.89
2024-03-10T07:48:20.432Z,7.92
2024-03-10T07:50:47.247Z,7.93
2024-03-10T07:53:14.502Z,7.93
2024-03-10T07:55:41.281Z,7.96
2024-03-10T07:58:10.319Z,7.93
2024-03-10T08:00:36.987Z,7.97
2024-03-10T08:03:03.871Z,7.97
2024-03-10T08:05:31.517Z,7.97
2024-03-10T08:07:58.842Z,8.01
2024-03-10T08:10:25.680Z,8.02
2024-03-10T08:12:53.532Z,8.03
2024-03-10T08:15:21.187Z,8.04
2024-03-10T08:17:48.476Z,8.04
2024-03-10T08:20:17.162Z,8.02
2024-03-10T08:22:45.045Z,8.03
2024-03-10T08:25:12.315Z,8.06
2024-03-10T08:27:42.427Z,8.06
2024-03-10T08:30:10.552Z,8.08
2024-03-10T08:32:38.090Z,8.09
2024-03-10T08:35:12.909Z,8.12
2024-03-10T08:37:43.632Z,8.14
2024-03-10T08:40:15.908Z,8.17
2024-03-10T08:42:43.228Z,8.18
2024-03-10T08:45:14.492Z,8.17
2024-03-10T08:47:43.092Z,8.20
2024-03-10T08:50:11.669Z,8.18
2024-03-10T08:52:40.381Z,8.19
2024-03-10T08:55:08.741Z,8.21
2024-03-10T08:57:39.370Z,8.22
2024-03-10T09:00:07.731Z,8.23
2024-03-10T09:02:34.605Z,8.24
2024-03-10T09:05:02.961Z,8.23
2024-03-10T09:07:30.480Z,8.23
2024-03-10T09:09:59.130Z,8.30
2024-03-10T09:12:26.319Z,8.32
2024-03-10T09:14:53.189Z,8.38
2024-03-10T09:17:20.362Z,8.40
2024-03-10T09:19:47.437Z,8.44
2024-03-10T09:22:14.971Z,8.50
2024-03-10T09:24:44.070Z,8.52
2024-03-10T09:27:11.308Z,8.54
2024-03-10T09:29:41.667Z,8.56
2024-03-10T09:32:17.072Z,8.59
2024-03-10T09:34:44.077Z,8.65
2024-03-10T09:37:10.796Z,8.70
2024-03-10T09:39:37.481Z,8.75
2024-03-10T09:42:05.040Z,8.77
2024-03-10T09:44:34.626Z,8.84
2024-03-10T09:47:02.635Z,8.88
2024-03-10T09:49:29.643Z,8.92
2024-03-10T09:51:58.458Z,8.90
2024-03-10T09:54:27.030Z,8.89
2024-03-10T09:56:54.221Z,8.88
2024-03-10T09:59:44.818Z,8.87
2024-03-10T10:02:20.986Z,8.87
2024-03-10T10:04:58.529Z,8.88
2024-03-10T10:07:28.132Z,8.92
2024-03-10T10:10:01.144Z,8.97
2024-03-10T10:12:31.734Z,8.95
2024-03-10T10:14:58.516Z,8.94
2024-03-10T10:17:26.629Z,8.98
2024-03-10T10:19:54.412Z,8.98
2024-03-10T10:22:25.133Z,9.02
2024-03-10T10:25:15.329Z,9.00
2024-03-10T10:27:50.401Z,8.98
2024-03-10T10:30:23.705Z,8.93
2024-03-10T10:33:04.022Z,8.92
2024-03-10T10:35:35.391Z,8.90
2024-03-10T10:38:12.898Z,8.90
2024-03-10T10:40:52.738Z,8.90
2024-03-10T10:43:19.701Z,8.88
2024-03-10T10:45:49.748Z,8.87
2024-03-10T10:48:21.603Z,8.87
2024-03-10T10:50:49.440Z,8.87
2024-03-10T10:53:16.941Z,8.88
2024-03-10T10:55:46.726Z,8.86
2024-03-10T10:58:18.188Z,8.84
2024-03-10T11:00:52.749Z,8.86
2024-03-10T11:03:26.779Z,8.87
2024-03-10T11:06:03.333Z,8.90
2024-03-10T11:08:33.947Z,8.91
2024-03-10T11:11:02.393Z,8.91
2024-03-10T11:13:29.476Z,8.91
2024-03-10T11:16:13.454Z,8.92
2024-03-10T11:18:44.508Z,8.92
2024-03-10T11:21:18.765Z,8.93
2024-03-10T11:23:47.527Z,8.94
2024-03-10T11:26:23.134Z,8.94
2024-03-10T11:28:52.236Z,8.91
2024-03-10T11:31:39.265Z,8.90
2024-03-10T11:34:09.213Z,8.90
2024-03-10T11:36:40.701Z,8.91
2024-03-10T11:39:10.442Z,8.92
2024-03-10T11:41:40.122Z,8.88
2024-03-10T11:44:07.444Z,8.87
2024-03-10T11:46:34.894Z,8.85
2024-03-10T11:49:03.209Z,8.84
2024-03-10T11:51:32.816Z,8.82
2024-03-10T11:54:00.795Z,8.81
2024-03-10T11:56:27.730Z,8.82
2024-03-10T11:58:59.609Z,8.83
2024-03-10T12:01:28.046Z,8.85
2024-03-10T12:03:56.942Z,8.90
2024-03-10T12:06:28.518Z,8.95
2024-03-10T12:08:55.674Z,8.96
2024-03-10T12:11:26.368Z,9.02
2024-03-10T12:13:54.555Z,9.05
2024-03-10T12:16:23.287Z,9.07
2024-03-10T12:18:51.105Z,9.04
2024-03-10T12:21:20.030Z,9.00
2024-03-10T12:23:47.794Z,8.95
2024-03-10T12:26:16.923Z,8.86
2024-03-10T12:28:48.354Z,8.84
2024-03-10T12:31:17.828Z,8.78
2024-03-10T12:33:47.744Z,8.75
2024-03-10T12:36:14.655Z,8.75
2024-03-10T12:38:43.041Z,8.71
2024-03-10T12:41:15.925Z,8.68
2024-03-10T12:43:43.181Z,8.69
2024-03-10T12:46:19.051Z,8.67
2024-03-10T12:48:47.229Z,8.65
2024-03-10T12:51:13.989Z,8.66
2024-03-10T12:53:41.441Z,8.68
2024-03-10T12:56:10.513Z,8.72
2024-03-10T12:58:37.787Z,8.76
2024-03-10T13:01:04.719Z,8.80
2024-03-10T13:03:32.421Z,8.81
2024-03-10T13:05:59.268Z,8.80
2024-03-10T13:08:26.173Z,8.77
2024-03-10T13:10:53.449Z,8.78
2024-03-10T13:13:21.188Z,8.76
2024-03-10T13:15:48.004Z,8.74
2024-03-10T13:18:16.614Z,8.73
2024-03-10T13:20:45.203Z,8.71
2024-03-10T13:23:14.266Z,8.68
2024-03-10T13:25:41.700Z,8.64
2024-03-10T13:28:08.536Z,8.61
2024-03-10T13:30:36.376Z,8.59
2024-03-10T13:33:03.507Z,8.53
2024-03-10T13:35:30.881Z,8.46
2024-03-10T13:37:57.917Z,8.46
2024-03-10T13:40:24.856Z,8.47
2024-03-10T13:42:51.626Z,8.47
2024-03-10T13:45:27.665Z,8.53
2024-03-10T13:48:06.029Z,8.55
2024-03-10T13:50:33.748Z,8.60
2024-03-10T13:53:01.050Z,8.62
2024-03-10T13:55:28.734Z,8.62
2024-03-10T13:57:55.771Z,8.61
2024-03-10T14:00:25.905Z,8.61
2024-03-10T14:02:52.984Z,8.60
2024-03-10T14:05:20.891Z,8.62
2024-03-10T14:07:48.772Z,8.64
2024-03-10T14:10:18.543Z,8.66
2024-03-10T14:12:45.853Z,8.71
2024-03-10T14:15:16.422Z,8.75
2024-03-10T14:17:46.209Z,8.76
2024-03-10T14:20:15.526Z,8.78
2024-03-10T14:22:49.635Z,8.77
2024-03-10T14:25:19.313Z,8.75
2024-03-10T14:27:51.224Z,8.74
2024-03-10T14:30:22.531Z,8.72
2024-03-10T14:32:53.172Z,8.70
2024-03-10T14:35:23.057Z,8.64
2024-03-10T14:37:50.782Z,8.63
2024-03-10T14:40:24.862Z,8.61
2024-03-10T14:42:53.397Z,8.57
2024-03-10T14:45:21.261Z,8.56
2024-03-10T14:47:51.069Z,8.57
2024-03-10T14:50:24.605Z,8.58
2024-03-10T14:52:53.786Z,8.59
2024-03-10T14:55:21.106Z,8.55
2024-03-10T14:57:48.404Z,8.50
2024-03-10T15:00:36.984Z,8.48
2024-03-10T15:03:12.479Z,8.50
2024-03-10T15:05:41.475Z,8.48
2024-03-10T15:08:10.286Z,8.46
2024-03-10T15:10:37.774Z,8.48
2024-03-10T15:13:10.148Z,8.48
2024-03-10T15:15:38.098Z,8.44
2024-03-10T15:18:07.528Z,8.43
2024-03-10T15:20:48.795Z,8.42
2024-03-10T15:23:18.566Z,8.41
2024-03-10T15:25:48.565Z,8.41
2024-03-10T15:28:16.239Z,8.40
2024-03-10T15:30:43.790Z,8.40
2024-03-10T15:33:12.180Z,8.38
2024-03-10T15:35:39.723Z,8.37
2024-03-10T15:38:07.577Z,8.39
2024-03-10T15:40:36.328Z,8.40
2024-03-10T15:43:09.929Z,8.39
2024-03-10T15:45:40.740Z,8.41
2024-03-10T15:48:10.362Z,8.40
2024-03-10T15:50:37.448Z,8.36
2024-03-10T15:53:05.101Z,8.34
2024-03-10T15:55:32.557Z,8.32
2024-03-10T15:57:59.451Z,8.31
2024-03-10T16:00:27.155Z,8.29
2024-03-10T16:03:00.245Z,8.28
2024-03-10T16:05:46.641Z,8.25
2024-03-10T16:08:15.421Z,8.22
2024-03-10T16:10:45.489Z,8.16
2024-03-10T16:13:28.134Z,8.11
2024-03-10T16:15:56.315Z,8.13
2024-03-10T16:18:29.416Z,8.12
2024-03-10T16:20:58.825Z,8.09
2024-03-10T16:23:29.077Z,8.07
2024-03-10T16:25:56.348Z,8.07
2024-03-10T16:28:23.904Z,8.07
2024-03-10T16:30:53.138Z,8.06
2024-03-10T16:33:20.590Z,8.05
2024-03-10T16:35:48.493Z,8.09
2024-03-10T16:38:16.163Z,8.11
2024-03-10T16:40:43.713Z,8.11
2024-03-10T16:43:10.742Z,8.12
2024-03-10T16:45:39.888Z,8.10
2024-03-10T16:48:07.064Z,8.08
2024-03-10T16:50:34.955Z,8.06
2024-03-10T16:53:09.564Z,8.02
2024-03-10T16:55:39.991Z,8.02
2024-03-10T16:58:11.083Z,8.01
2024-03-10T17:00:40.278Z,8.00
2024-03-10T17:03:12.589Z,8.00
2024-03-10T17:05:40.876Z,7.98
2024-03-10T17:08:11.590Z,7.99
2024-03-10T17:10:38.854Z,8.02
2024-03-10T17:13:07.027Z,8.00
2024-03-10T17:15:34.272Z,7.97
2024-03-10T17:18:01.340Z,7.94
2024-03-10T17:20:29.494Z,7.91
2024-03-10T17:22:56.328Z,7.91
2024-03-10T17:25:23.087Z,7.92
2024-03-10T17:27:50.107Z,7.91
2024-03-10T17:30:17.520Z,7.89
2024-03-10T17:32:51.925Z,7.85
2024-03-10T17:35:21.406Z,7.82
2024-03-10T17:37:49.236Z,7.82
2024-03-10T17:40:16.521Z,7.82
2024-03-10T17:42:44.522Z,7.82
2024-03-10T17:45:12.737Z,7.80
2024-03-10T17:47:40.011Z,7.75
2024-03-10T17:50:08.305Z,7.74
2024-03-10T17:52:35.267Z,7.69
2024-03-10T17:55:02.362Z,7.70
2024-03-10T17:57:29.276Z,7.69
2024-03-10T17:59:56.213Z,7.66
2024-03-10T18:02:23.027Z,7.65
2024-03-10T18:04:49.727Z,7.63
2024-03-10T18:07:16.448Z,7.59
2024-03-10T18:09:43.569Z,7.61
2024-03-10T18:12:10.444Z,7.62
2024-03-10T18:14:37.453Z,7.62
2024-03-10T18:17:06.995Z,7.60
2024-03-10T18:19:33.917Z,7.57
2024-03-10T18:22:00.724Z,7.53
2024-03-10T18:24:27.837Z,7.51
2024-03-10T18:26:54.622Z,7.48
2024-03-10T18:29:22.459Z,7.44
2024-03-10T18:31:49.645Z,7.41
2024-03-10T18:34:16.460Z,7.42
2024-03-10T18:36:43.359Z,7.42
2024-03-10T18:39:10.602Z,7.41
2024-03-10T18:41:38.404Z,7.41
2024-03-10T18:44:09.580Z,7.41
2024-03-10T18:46:38.518Z,7.43
2024-03-10T18:49:05.850Z,7.42
2024-03-10T18:51:33.554Z,7.38
2024-03-10T18:54:02.460Z,7.38
2024-03-10T18:56:30.469Z,7.35
2024-03-10T18:58:57.440Z,7.35
2024-03-10T19:01:24.625Z,7.33
2024-03-10T19:03:51.852Z,7.30
2024-03-10T19:06:19.832Z,7.26
2024-03-10T19:08:47.445Z,7.25
2024-03-10T19:11:14.540Z,7.24
2024-03-10T19:13:42.608Z,7.24
2024-03-10T19:16:11.042Z,7.19
2024-03-10T19:18:38.483Z,7.17
2024-03-10T19:21:07.202Z,7.16
2024-03-10T19:23:34.495Z,7.15
2024-03-10T19:26:04.790Z,7.13
2024-03-10T19:28:32.503Z,7.12
2024-03-10T19:31:01.466Z,7.10
2024-03-10T19:33:28.512Z,7.09
2024-03-10T19:35:56.502Z,7.11
2024-03-10T19:38:23.482Z,7.07
2024-03-10T19:40:51.513Z,7.07
2024-03-10T19:43:18.303Z,7.09
2024-03-10T19:45:45.282Z,7.08
2024-03-10T19:48:18.695Z,7.07
2024-03-10T19:50:50.483Z,7.06
2024-03-10T19:53:21.168Z,7.04
2024-03-10T19:55:50.165Z,7.05
2024-03-10T19:58:16.862Z,7.03
2024-03-10T20:00:43.698Z,7.03
2024-03-10T20:03:10.489Z,7.02
2024-03-10T20:05:37.872Z,7.00
2024-03-10T20:08:05.147Z,6.98
2024-03-10T20:10:31.960Z,7.00
2024-03-10T20:13:03.534Z,7.01
2024-03-10T20:15:30.479Z,7.00
2024-03-10T20:17:58.949Z,7.01
2024-03-10T20:20:26.986Z,6.98
2024-03-10T20:22:55.967Z,6.97
2024-03-10T20:25:24.811Z,6.97
2024-03-10T20:27:59.322Z,6.97
2024-03-10T20:30:31.242Z,6.96
2024-03-10T20:32:59.220Z,6.96
2024-03-10T20:35:26.662Z,6.95
2024-03-10T20:37:53.924Z,6.96
2024-03-10T20:40:20.970Z,6.97
2024-03-10T20:42:48.565Z,6.96
2024-03-10T20:45:15.710Z,6.96
2024-03-10T20:47:47.686Z,6.96
2024-03-10T20:50:16.171Z,6.96
2024-03-10T20:52:43.797Z,6.97
2024-03-10T20:55:12.184Z,6.95
2024-03-10T20:57:40.009Z,6.95
2024-03-10T21:00:11.324Z,6.95
2024-03-10T21:02:38.825Z,6.94
2024-03-10T21:05:05.831Z,6.93
2024-03-10T21:07:32.534Z,6.92
2024-03-10T21:10:00.449Z,6.92
2024-03-10T21:12:27.230Z,6.93
2024-03-10T21:14:53.911Z,6.92
2024-03-10T21:17:20.625Z,6.94
2024-03-10T21:19:47.322Z,6.96
2024-03-10T21:22:17.958Z,6.97
2024-03-10T21:24:44.629Z,6.97
2024-03-10T21:27:11.426Z,6.96
2024-03-10T21:29:38.614Z,6.96
2024-03-10T21:32:06.206Z,6.97
2024-03-10T21:34:32.969Z,6.98
2024-03-10T21:36:59.712Z,6.96
2024-03-10T21:39:28.694Z,6.96
2024-03-10T21:41:55.360Z,6.96
2024-03-10T21:44:22.245Z,6.97
2024-03-10T21:46:50.548Z,6.96
2024-03-10T21:49:17.247Z,6.96
2024-03-10T21:51:43.979Z,6.96
2024-03-10T21:54:10.743Z,6.95
2024-03-10T21:56:40.726Z,6.96
2024-03-10T21:59:07.948Z,6.96
2024-03-10T22:01:36.326Z,6.99
2024-03-10T22:04:05.926Z,6.97
2024-03-10T22:06:33.509Z,6.97
2024-03-10T22:09:00.800Z,6.95
2024-03-10T22:13:56.332Z,6.93
2024-03-10T22:16:23.388Z,6.94
2024-03-10T22:18:50.118Z,6.96
2024-03-10T22:21:17.825Z,6.96
2024-03-10T22:23:44.843Z,6.94
2024-03-10T22:26:11.821Z,6.93
2024-03-10T22:28:38.497Z,6.91
2024-03-10T22:31:08.459Z,6.92
2024-03-10T22:33:42.360Z,6.91
2024-03-10T22:36:11.684Z,6.89
2024-03-10T22:38:38.446Z,6.88
2024-03-10T22:41:06.209Z,6.86
2024-03-10T22:43:35.059Z,6.86
2024-03-10T22:46:02.924Z,6.85
2024-03-10T22:48:30.795Z,6.86
2024-03-10T22:51:00.198Z,6.85
2024-03-10T22:53:27.082Z,6.85
2024-03-10T22:55:53.790Z,6.83
2024-03-10T22:58:23.378Z,6.83
2024-03-10T23:00:55.952Z,6.81
2024-03-10T23:03:25.509Z,6.81
2024-03-10T23:05:52.828Z,6.82
2024-03-10T23:08:20.157Z,6.80
2024-03-10T23:10:49.245Z,6.79
2024-03-10T23:13:21.277Z,6.78
2024-03-10T23:15:50.657Z,6.77
2024-03-10T23:18:27.096Z,6.76
2024-03-10T23:20:56.060Z,6.76
2024-03-10T23:23:24.502Z,6.76
2024-03-10T23:25:53.262Z,6.77
2024-03-10T23:28:20.213Z,6.76
2024-03-10T23:30:47.356Z,6.76
2024-03-10T23:33:14.110Z,6.74
2024-03-10T23:35:40.907Z,6.72
2024-03-10T23:38:07.764Z,6.70
2024-03-10T23:40:34.725Z,6.69
2024-03-10T23:43:02.089Z,6.71
2024-03-10T23:45:30.955Z,6.70
2024-03-10T23:48:01.008Z,6.70
2024-03-10T23:50:28.419Z,6.70
2024-03-10T23:52:57.817Z,6.70
2024-03-10T23:55:38.071Z,6.68
2024-03-10T23:58:05.468Z,6.66
